Leawood, Kansas
Current Conditions -  °F | °C
As of 3:53 AM on Monday 22 Dec 2014 (Local Time) from KOJC Reporting Station
Haze Haze  
Wind Chill: 35°   Ceiling: 600
Heat Index: 41°   Visibility: 2.5mi
Dew Point: 41°   Wind: 10mph
Humidity: 100%   Direction: 150°SSE
Pressure: 29.64"   Gusts: NA
Location:  38.92°N, 94.64°W
Report Text: KOJC 220953Z AUTO 15009KT 2 1/2SM BR OVC006 05/05 A2964 RMK AO2 RAB0859E41 SLP039 P0001 T00500050
Loading
Personal Weather Stations






























Interactive Weather Map New forecast layout! Learn more

10-Day Weather Forecast

Advertisements
Track Severe Weather on mobile